sensor_id;sensor_type;location;lat;lon;timestamp;pressure;altitude;pressure_sealevel;temperature;humidity
81393;BME280;70850;45.808;15.808;2023-07-02T00:00:50;99495.47;;;17.63;93.22
81393;BME280;70850;45.808;15.808;2023-07-02T00:03:17;99497.06;;;17.64;93.26
81393;BME280;70850;45.808;15.808;2023-07-02T00:05:49;99489.78;;;17.64;92.74
81393;BME280;70850;45.808;15.808;2023-07-02T00:08:16;99490.59;;;17.65;93.12
81393;BME280;70850;45.808;15.808;2023-07-02T00:10:41;99485.28;;;17.60;92.68
81393;BME280;70850;45.808;15.808;2023-07-02T00:13:07;99486.88;;;17.61;92.62
81393;BME280;70850;45.808;15.808;2023-07-02T00:15:32;99488.53;;;17.57;92.47
81393;BME280;70850;45.808;15.808;2023-07-02T00:17:58;99491.50;;;17.55;92.62
81393;BME280;70850;45.808;15.808;2023-07-02T00:20:23;99488.81;;;17.55;92.97
81393;BME280;70850;45.808;15.808;2023-07-02T00:22:49;99496.63;;;17.52;92.52
81393;BME280;70850;45.808;15.808;2023-07-02T00:25:15;99493.41;;;17.50;92.63
81393;BME280;70850;45.808;15.808;2023-07-02T00:27:41;99486.94;;;17.51;92.80
81393;BME280;70850;45.808;15.808;2023-07-02T00:30:06;99492.84;;;17.53;92.72
81393;BME280;70850;45.808;15.808;2023-07-02T00:32:32;99485.63;;;17.48;92.76
81393;BME280;70850;45.808;15.808;2023-07-02T00:34:57;99488.34;;;17.43;92.74
81393;BME280;70850;45.808;15.808;2023-07-02T00:37:24;99491.28;;;17.47;93.26
81393;BME280;70850;45.808;15.808;2023-07-02T00:39:49;99487.31;;;17.39;93.31
81393;BME280;70850;45.808;15.808;2023-07-02T00:42:15;99487.59;;;17.38;93.69
81393;BME280;70850;45.808;15.808;2023-07-02T00:44:41;99489.72;;;17.41;93.56
81393;BME280;70850;45.808;15.808;2023-07-02T00:47:11;99487.84;;;17.41;93.70
81393;BME280;70850;45.808;15.808;2023-07-02T00:49:37;99491.59;;;17.40;93.81
81393;BME280;70850;45.808;15.808;2023-07-02T00:52:03;99499.88;;;17.49;93.99
81393;BME280;70850;45.808;15.808;2023-07-02T00:54:30;99498.56;;;17.46;94.01
81393;BME280;70850;45.808;15.808;2023-07-02T00:56:56;99500.94;;;17.48;93.92
81393;BME280;70850;45.808;15.808;2023-07-02T00:59:21;99500.38;;;17.51;93.96
81393;BME280;70850;45.808;15.808;2023-07-02T01:01:47;99494.50;;;17.49;93.82
81393;BME280;70850;45.808;15.808;2023-07-02T01:04:17;99495.31;;;17.49;93.89
81393;BME280;70850;45.808;15.808;2023-07-02T01:06:43;99499.03;;;17.53;94.01
81393;BME280;70850;45.808;15.808;2023-07-02T01:09:09;99491.81;;;17.49;93.96
81393;BME280;70850;45.808;15.808;2023-07-02T01:11:47;99489.41;;;17.47;94.05
81393;BME280;70850;45.808;15.808;2023-07-02T01:14:25;99493.94;;;17.52;94.01
81393;BME280;70850;45.808;15.808;2023-07-02T01:16:52;99492.28;;;17.56;94.02
81393;BME280;70850;45.808;15.808;2023-07-02T01:21:58;99474.56;;;17.55;93.63
81393;BME280;70850;45.808;15.808;2023-07-02T01:24:24;99490.16;;;17.58;93.58
81393;BME280;70850;45.808;15.808;2023-07-02T01:26:49;99486.66;;;17.57;93.61
81393;BME280;70850;45.808;15.808;2023-07-02T01:29:15;99487.66;;;17.61;93.60
81393;BME280;70850;45.808;15.808;2023-07-02T01:31:41;99485.78;;;17.62;93.66
81393;BME280;70850;45.808;15.808;2023-07-02T01:34:06;99492.78;;;17.63;93.51
81393;BME280;70850;45.808;15.808;2023-07-02T01:36:33;99477.72;;;17.62;93.44
81393;BME280;70850;45.808;15.808;2023-07-02T01:38:59;99482.47;;;17.70;93.30
81393;BME280;70850;45.808;15.808;2023-07-02T01:41:24;99480.09;;;17.68;93.49
81393;BME280;70850;45.808;15.808;2023-07-02T01:43:50;99486.84;;;17.66;93.34
81393;BME280;70850;45.808;15.808;2023-07-02T01:46:15;99484.66;;;17.68;93.33
81393;BME280;70850;45.808;15.808;2023-07-02T01:48:40;99481.72;;;17.64;93.22
81393;BME280;70850;45.808;15.808;2023-07-02T01:51:06;99479.50;;;17.71;93.26
81393;BME280;70850;45.808;15.808;2023-07-02T01:53:31;99490.50;;;17.75;93.38
81393;BME280;70850;45.808;15.808;2023-07-02T01:55:57;99488.91;;;17.74;93.22
81393;BME280;70850;45.808;15.808;2023-07-02T01:58:22;99486.72;;;17.76;93.47
81393;BME280;70850;45.808;15.808;2023-07-02T02:00:47;99478.34;;;17.77;93.43
81393;BME280;70850;45.808;15.808;2023-07-02T02:03:14;99477.78;;;17.80;93.20
81393;BME280;70850;45.808;15.808;2023-07-02T02:05:40;99476.19;;;17.79;93.06
81393;BME280;70850;45.808;15.808;2023-07-02T02:08:05;99480.78;;;17.79;93.16
81393;BME280;70850;45.808;15.808;2023-07-02T02:10:30;99479.97;;;17.78;93.21
81393;BME280;70850;45.808;15.808;2023-07-02T02:12:56;99475.41;;;17.79;93.01
81393;BME280;70850;45.808;15.808;2023-07-02T02:15:21;99476.16;;;17.84;93.10
81393;BME280;70850;45.808;15.808;2023-07-02T02:17:47;99482.34;;;17.85;92.87
81393;BME280;70850;45.808;15.808;2023-07-02T02:20:12;99475.84;;;17.86;92.83
81393;BME280;70850;45.808;15.808;2023-07-02T02:22:38;99479.66;;;17.85;92.64
81393;BME280;70850;45.808;15.808;2023-07-02T02:25:03;99471.63;;;17.80;92.80
81393;BME280;70850;45.808;15.808;2023-07-02T02:27:29;99474.25;;;17.85;92.73
81393;BME280;70850;45.808;15.808;2023-07-02T02:29:54;99473.72;;;17.83;92.81
81393;BME280;70850;45.808;15.808;2023-07-02T02:32:20;99479.09;;;17.83;93.03
81393;BME280;70850;45.808;15.808;2023-07-02T02:34:47;99478.31;;;17.82;93.12
81393;BME280;70850;45.808;15.808;2023-07-02T02:37:12;99480.47;;;17.80;93.61
81393;BME280;70850;45.808;15.808;2023-07-02T02:39:37;99484.28;;;17.79;93.29
81393;BME280;70850;45.808;15.808;2023-07-02T02:42:03;99479.22;;;17.73;93.40
81393;BME280;70850;45.808;15.808;2023-07-02T02:44:29;99484.84;;;17.76;93.34
81393;BME280;70850;45.808;15.808;2023-07-02T02:46:55;99487.03;;;17.74;93.28
81393;BME280;70850;45.808;15.808;2023-07-02T02:49:20;99488.34;;;17.77;93.34
81393;BME280;70850;45.808;15.808;2023-07-02T02:51:46;99490.47;;;17.80;93.52
81393;BME280;70850;45.808;15.808;2023-07-02T02:54:11;99484.53;;;17.78;93.13
81393;BME280;70850;45.808;15.808;2023-07-02T02:56:37;99486.66;;;17.81;93.35
81393;BME280;70850;45.808;15.808;2023-07-02T02:59:02;99494.19;;;17.84;93.17
81393;BME280;70850;45.808;15.808;2023-07-02T03:01:27;99498.75;;;17.83;93.27
81393;BME280;70850;45.808;15.808;2023-07-02T03:03:57;99495.03;;;17.79;93.14
81393;BME280;70850;45.808;15.808;2023-07-02T03:06:23;99508.69;;;17.88;93.01
81393;BME280;70850;45.808;15.808;2023-07-02T03:08:48;99504.31;;;17.92;93.13
81393;BME280;70850;45.808;15.808;2023-07-02T03:11:13;99506.56;;;17.85;92.86
81393;BME280;70850;45.808;15.808;2023-07-02T03:13:39;99501.22;;;17.80;92.80
81393;BME280;70850;45.808;15.808;2023-07-02T03:16:05;99506.00;;;17.88;92.90
81393;BME280;70850;45.808;15.808;2023-07-02T03:18:30;99509.72;;;17.92;92.77
81393;BME280;70850;45.808;15.808;2023-07-02T03:20:55;99512.69;;;17.91;93.07
81393;BME280;70850;45.808;15.808;2023-07-02T03:23:21;99511.03;;;17.95;92.85
81393;BME280;70850;45.808;15.808;2023-07-02T03:25:46;99515.03;;;17.97;92.76
81393;BME280;70850;45.808;15.808;2023-07-02T03:28:12;99506.75;;;17.94;92.55
81393;BME280;70850;45.808;15.808;2023-07-02T03:30:37;99515.03;;;17.97;92.82
81393;BME280;70850;45.808;15.808;2023-07-02T03:33:03;99521.75;;;18.00;92.79
81393;BME280;70850;45.808;15.808;2023-07-02T03:35:28;99519.63;;;17.97;92.98
81393;BME280;70850;45.808;15.808;2023-07-02T03:37:54;99522.03;;;17.98;92.86
81393;BME280;70850;45.808;15.808;2023-07-02T03:40:19;99519.34;;;17.98;92.77
81393;BME280;70850;45.808;15.808;2023-07-02T03:42:45;99518.78;;;18.01;92.90
81393;BME280;70850;45.808;15.808;2023-07-02T03:45:10;99523.28;;;18.06;92.78
81393;BME280;70850;45.808;15.808;2023-07-02T03:47:36;99520.53;;;18.11;92.65
81393;BME280;70850;45.808;15.808;2023-07-02T03:50:01;99528.34;;;18.12;92.66
81393;BME280;70850;45.808;15.808;2023-07-02T03:52:27;99532.31;;;18.20;92.66
81393;BME280;70850;45.808;15.808;2023-07-02T03:54:52;99531.44;;;18.24;92.40
81393;BME280;70850;45.808;15.808;2023-07-02T03:57:17;99541.06;;;18.30;92.06
81393;BME280;70850;45.808;15.808;2023-07-02T03:59:43;99528.63;;;18.34;91.78
81393;BME280;70850;45.808;15.808;2023-07-02T04:02:08;99545.75;;;18.43;91.30
81393;BME280;70850;45.808;15.808;2023-07-02T04:04:34;99539.78;;;18.47;90.95
81393;BME280;70850;45.808;15.808;2023-07-02T04:06:59;99537.91;;;18.47;90.97
81393;BME280;70850;45.808;15.808;2023-07-02T04:09:24;99530.53;;;18.58;90.52
81393;BME280;70850;45.808;15.808;2023-07-02T04:11:50;99529.44;;;18.59;90.45
81393;BME280;70850;45.808;15.808;2023-07-02T04:14:15;99540.97;;;18.64;90.51
81393;BME280;70850;45.808;15.808;2023-07-02T04:16:43;99537.66;;;18.67;90.40
81393;BME280;70850;45.808;15.808;2023-07-02T04:19:09;99554.25;;;18.79;90.55
81393;BME280;70850;45.808;15.808;2023-07-02T04:21:35;99544.47;;;18.83;90.47
81393;BME280;70850;45.808;15.808;2023-07-02T04:24:00;99550.31;;;18.90;90.34
81393;BME280;70850;45.808;15.808;2023-07-02T04:26:26;99552.63;;;18.97;90.18
81393;BME280;70850;45.808;15.808;2023-07-02T04:28:55;99544.69;;;19.06;89.50
81393;BME280;70850;45.808;15.808;2023-07-02T04:31:21;99568.03;;;19.15;89.11
81393;BME280;70850;45.808;15.808;2023-07-02T04:33:46;99557.81;;;19.31;88.76
81393;BME280;70850;45.808;15.808;2023-07-02T04:36:11;99561.41;;;19.45;88.17
81393;BME280;70850;45.808;15.808;2023-07-02T04:38:38;99566.19;;;19.67;87.31
81393;BME280;70850;45.808;15.808;2023-07-02T04:41:04;99560.66;;;20.04;86.38
81393;BME280;70850;45.808;15.808;2023-07-02T04:43:33;99574.94;;;20.37;85.17
81393;BME280;70850;45.808;15.808;2023-07-02T04:45:59;99571.81;;;20.70;83.54
81393;BME280;70850;45.808;15.808;2023-07-02T04:48:25;99577.28;;;20.93;81.31
81393;BME280;70850;45.808;15.808;2023-07-02T04:50:50;99580.59;;;21.17;80.14
81393;BME280;70850;45.808;15.808;2023-07-02T04:53:16;99581.81;;;20.97;80.21
81393;BME280;70850;45.808;15.808;2023-07-02T04:55:42;99582.81;;;20.88;80.48
81393;BME280;70850;45.808;15.808;2023-07-02T04:58:08;99590.13;;;21.01;80.40
81393;BME280;70850;45.808;15.808;2023-07-02T05:00:33;99588.56;;;20.45;81.27
81393;BME280;70850;45.808;15.808;2023-07-02T05:02:59;99590.56;;;20.40;81.84
81393;BME280;70850;45.808;15.808;2023-07-02T05:05:24;99605.38;;;20.42;82.38
81393;BME280;70850;45.808;15.808;2023-07-02T05:07:49;99595.84;;;20.45;82.10
81393;BME280;70850;45.808;15.808;2023-07-02T05:10:15;99596.69;;;20.13;82.63
81393;BME280;70850;45.808;15.808;2023-07-02T05:12:40;99595.25;;;20.48;82.89
81393;BME280;70850;45.808;15.808;2023-07-02T05:15:06;99602.88;;;20.59;82.37
81393;BME280;70850;45.808;15.808;2023-07-02T05:17:32;99597.56;;;20.82;81.86
81393;BME280;70850;45.808;15.808;2023-07-02T05:20:00;99607.88;;;20.79;81.11
81393;BME280;70850;45.808;15.808;2023-07-02T05:22:26;99602.75;;;20.78;80.11
81393;BME280;70850;45.808;15.808;2023-07-02T05:24:51;99596.16;;;20.70;80.41
81393;BME280;70850;45.808;15.808;2023-07-02T05:27:17;99595.03;;;20.85;80.86
81393;BME280;70850;45.808;15.808;2023-07-02T05:29:43;99603.47;;;20.84;79.63
81393;BME280;70850;45.808;15.808;2023-07-02T05:32:08;99600.34;;;20.76;79.82
81393;BME280;70850;45.808;15.808;2023-07-02T05:34:34;99599.38;;;20.72;80.08
81393;BME280;70850;45.808;15.808;2023-07-02T05:36:59;99600.28;;;20.54;81.53
81393;BME280;70850;45.808;15.808;2023-07-02T05:39:25;99598.19;;;20.51;81.16
81393;BME280;70850;45.808;15.808;2023-07-02T05:41:50;99595.47;;;20.65;81.55
81393;BME280;70850;45.808;15.808;2023-07-02T05:44:16;99600.34;;;20.63;81.16
81393;BME280;70850;45.808;15.808;2023-07-02T05:46:41;99610.44;;;20.85;80.75
81393;BME280;70850;45.808;15.808;2023-07-02T05:49:07;99615.38;;;20.69;80.72
81393;BME280;70850;45.808;15.808;2023-07-02T05:51:32;99612.56;;;20.88;80.32
81393;BME280;70850;45.808;15.808;2023-07-02T05:53:57;99608.63;;;21.21;79.87
81393;BME280;70850;45.808;15.808;2023-07-02T05:56:23;99614.97;;;21.16;78.98
81393;BME280;70850;45.808;15.808;2023-07-02T05:58:49;99614.34;;;21.06;79.19
81393;BME280;70850;45.808;15.808;2023-07-02T06:01:15;99614.03;;;21.21;78.40
81393;BME280;70850;45.808;15.808;2023-07-02T06:03:41;99617.25;;;21.09;78.33
81393;BME280;70850;45.808;15.808;2023-07-02T06:06:07;99622.97;;;20.94;79.33
81393;BME280;70850;45.808;15.808;2023-07-02T06:08:33;99620.53;;;21.06;78.78
81393;BME280;70850;45.808;15.808;2023-07-02T06:10:59;99622.41;;;20.84;79.53
81393;BME280;70850;45.808;15.808;2023-07-02T06:13:24;99629.13;;;20.72;79.84
81393;BME280;70850;45.808;15.808;2023-07-02T06:15:50;99628.69;;;20.93;79.06
81393;BME280;70850;45.808;15.808;2023-07-02T06:18:15;99627.91;;;20.92;79.92
81393;BME280;70850;45.808;15.808;2023-07-02T06:20:42;99638.59;;;21.24;78.52
81393;BME280;70850;45.808;15.808;2023-07-02T06:23:08;99632.50;;;22.21;74.62
81393;BME280;70850;45.808;15.808;2023-07-02T06:25:34;99634.16;;;23.18;71.56
81393;BME280;70850;45.808;15.808;2023-07-02T06:27:59;99630.00;;;23.98;68.97
81393;BME280;70850;45.808;15.808;2023-07-02T06:30:25;99633.16;;;24.34;67.85
81393;BME280;70850;45.808;15.808;2023-07-02T06:32:51;99640.09;;;24.61;65.54
81393;BME280;70850;45.808;15.808;2023-07-02T06:35:17;99641.63;;;24.33;66.95
81393;BME280;70850;45.808;15.808;2023-07-02T06:37:43;99637.53;;;23.92;68.51
81393;BME280;70850;45.808;15.808;2023-07-02T06:40:08;99639.94;;;23.85;69.08
81393;BME280;70850;45.808;15.808;2023-07-02T06:42:34;99645.22;;;23.47;68.83
81393;BME280;70850;45.808;15.808;2023-07-02T06:45:01;99626.56;;;24.81;65.73
81393;BME280;70850;45.808;15.808;2023-07-02T06:47:27;99626.66;;;25.97;63.87
81393;BME280;70850;45.808;15.808;2023-07-02T06:49:52;99623.63;;;26.68;59.80
81393;BME280;70850;45.808;15.808;2023-07-02T06:52:18;99622.72;;;26.63;57.72
81393;BME280;70850;45.808;15.808;2023-07-02T06:54:44;99618.97;;;26.44;58.79
81393;BME280;70850;45.808;15.808;2023-07-02T06:57:09;99619.47;;;26.13;58.39
81393;BME280;70850;45.808;15.808;2023-07-02T06:59:34;99621.59;;;27.01;57.90
81393;BME280;70850;45.808;15.808;2023-07-02T07:02:00;99623.84;;;27.11;56.14
81393;BME280;70850;45.808;15.808;2023-07-02T07:04:25;99632.00;;;26.26;58.28
81393;BME280;70850;45.808;15.808;2023-07-02T07:06:52;99640.94;;;26.84;57.44
81393;BME280;70850;45.808;15.808;2023-07-02T07:09:18;99647.31;;;27.12;55.86
81393;BME280;70850;45.808;15.808;2023-07-02T07:11:43;99650.69;;;27.85;55.41
81393;BME280;70850;45.808;15.808;2023-07-02T07:14:09;99652.19;;;27.18;56.15
81393;BME280;70850;45.808;15.808;2023-07-02T07:16:34;99646.78;;;27.34;54.90
81393;BME280;70850;45.808;15.808;2023-07-02T07:19:00;99660.16;;;27.75;55.34
81393;BME280;70850;45.808;15.808;2023-07-02T07:21:25;99662.13;;;28.03;55.08
81393;BME280;70850;45.808;15.808;2023-07-02T07:23:51;99658.19;;;27.48;55.41
81393;BME280;70850;45.808;15.808;2023-07-02T07:26:16;99656.84;;;27.42;56.19
81393;BME280;70850;45.808;15.808;2023-07-02T07:28:41;99659.88;;;28.20;55.10
81393;BME280;70850;45.808;15.808;2023-07-02T07:31:07;99661.19;;;27.31;56.20
81393;BME280;70850;45.808;15.808;2023-07-02T07:33:33;99668.81;;;28.33;54.59
81393;BME280;70850;45.808;15.808;2023-07-02T07:35:58;99664.66;;;28.23;54.14
81393;BME280;70850;45.808;15.808;2023-07-02T07:38:24;99664.09;;;27.62;53.67
81393;BME280;70850;45.808;15.808;2023-07-02T07:40:51;99670.59;;;27.58;54.11
81393;BME280;70850;45.808;15.808;2023-07-02T07:43:16;99659.69;;;27.34;55.38
81393;BME280;70850;45.808;15.808;2023-07-02T07:45:42;99668.13;;;27.04;54.82
81393;BME280;70850;45.808;15.808;2023-07-02T07:48:07;99666.31;;;27.45;55.83
81393;BME280;70850;45.808;15.808;2023-07-02T07:50:32;99678.94;;;28.32;54.82
81393;BME280;70850;45.808;15.808;2023-07-02T07:52:58;99678.19;;;28.48;52.39
81393;BME280;70850;45.808;15.808;2023-07-02T07:55:24;99668.59;;;28.69;50.82
81393;BME280;70850;45.808;15.808;2023-07-02T07:57:50;99675.22;;;27.97;53.40
81393;BME280;70850;45.808;15.808;2023-07-02T08:00:16;99667.00;;;27.42;54.60
81393;BME280;70850;45.808;15.808;2023-07-02T08:02:43;99682.19;;;28.07;54.41
81393;BME280;70850;45.808;15.808;2023-07-02T08:05:08;99676.28;;;28.64;51.97
81393;BME280;70850;45.808;15.808;2023-07-02T08:07:34;99672.03;;;29.67;51.16
81393;BME280;70850;45.808;15.808;2023-07-02T08:10:00;99684.09;;;29.28;49.88
81393;BME280;70850;45.808;15.808;2023-07-02T08:12:27;99682.16;;;29.13;50.79
81393;BME280;70850;45.808;15.808;2023-07-02T08:14:54;99673.41;;;29.58;49.29
81393;BME280;70850;45.808;15.808;2023-07-02T08:17:20;99679.44;;;29.82;48.57
81393;BME280;70850;45.808;15.808;2023-07-02T08:19:45;99689.09;;;29.41;47.59
81393;BME280;70850;45.808;15.808;2023-07-02T08:22:12;99691.56;;;28.80;49.47
81393;BME280;70850;45.808;15.808;2023-07-02T08:24:37;99682.28;;;29.51;48.11
81393;BME280;70850;45.808;15.808;2023-07-02T08:27:03;99683.00;;;29.48;49.71
81393;BME280;70850;45.808;15.808;2023-07-02T08:29:30;99681.19;;;30.32;47.41
81393;BME280;70850;45.808;15.808;2023-07-02T08:31:55;99673.59;;;30.03;48.19
81393;BME280;70850;45.808;15.808;2023-07-02T08:34:21;99675.84;;;29.97;45.92
81393;BME280;70850;45.808;15.808;2023-07-02T08:36:46;99678.88;;;30.34;45.27
81393;BME280;70850;45.808;15.808;2023-07-02T08:39:12;99674.94;;;30.77;43.86
81393;BME280;70850;45.808;15.808;2023-07-02T08:41:44;99675.69;;;30.51;45.23
81393;BME280;70850;45.808;15.808;2023-07-02T08:44:11;99676.47;;;31.23;44.93
81393;BME280;70850;45.808;15.808;2023-07-02T08:46:37;99668.16;;;30.94;43.53
81393;BME280;70850;45.808;15.808;2023-07-02T08:49:02;99675.88;;;30.62;44.60
81393;BME280;70850;45.808;15.808;2023-07-02T08:51:28;99670.72;;;30.38;45.23
81393;BME280;70850;45.808;15.808;2023-07-02T08:53:54;99664.53;;;31.42;43.74
81393;BME280;70850;45.808;15.808;2023-07-02T08:56:19;99666.34;;;31.87;43.03
81393;BME280;70850;45.808;15.808;2023-07-02T08:58:45;99667.09;;;30.34;44.09
81393;BME280;70850;45.808;15.808;2023-07-02T09:01:12;99668.69;;;31.29;43.36
81393;BME280;70850;45.808;15.808;2023-07-02T09:03:38;99664.41;;;31.58;42.09
81393;BME280;70850;45.808;15.808;2023-07-02T09:06:05;99662.59;;;31.69;44.07
81393;BME280;70850;45.808;15.808;2023-07-02T09:08:31;99669.56;;;32.29;41.69
81393;BME280;70850;45.808;15.808;2023-07-02T09:11:09;99663.69;;;31.64;42.36
81393;BME280;70850;45.808;15.808;2023-07-02T09:13:48;99663.16;;;31.85;38.46
81393;BME280;70850;45.808;15.808;2023-07-02T09:21:26;99670.31;;;32.63;41.06
81393;BME280;70850;45.808;15.808;2023-07-02T09:23:51;99684.59;;;33.27;39.60
81393;BME280;70850;45.808;15.808;2023-07-02T09:26:21;99676.69;;;33.25;38.37
81393;BME280;70850;45.808;15.808;2023-07-02T09:28:46;99680.25;;;33.26;37.74
81393;BME280;70850;45.808;15.808;2023-07-02T09:31:12;99675.97;;;33.35;38.30
81393;BME280;70850;45.808;15.808;2023-07-02T09:33:37;99674.84;;;33.40;36.34
81393;BME280;70850;45.808;15.808;2023-07-02T09:36:03;99677.19;;;33.41;40.17
81393;BME280;70850;45.808;15.808;2023-07-02T09:38:29;99672.75;;;32.75;37.17
81393;BME280;70850;45.808;15.808;2023-07-02T09:40:54;99674.44;;;33.41;35.28
81393;BME280;70850;45.808;15.808;2023-07-02T09:43:22;99678.56;;;33.79;37.52
81393;BME280;70850;45.808;15.808;2023-07-02T09:45:52;99679.72;;;33.64;38.40
81393;BME280;70850;45.808;15.808;2023-07-02T09:48:21;99672.72;;;33.95;38.99
81393;BME280;70850;45.808;15.808;2023-07-02T09:50:49;99680.59;;;33.93;37.71
81393;BME280;70850;45.808;15.808;2023-07-02T09:53:15;99680.78;;;34.60;36.42
81393;BME280;70850;45.808;15.808;2023-07-02T09:55:43;99674.28;;;33.92;37.84
81393;BME280;70850;45.808;15.808;2023-07-02T09:58:09;99685.88;;;34.47;32.54
81393;BME280;70850;45.808;15.808;2023-07-02T10:00:37;99686.94;;;33.97;32.08
81393;BME280;70850;45.808;15.808;2023-07-02T10:03:03;99678.00;;;33.49;34.07
81393;BME280;70850;45.808;15.808;2023-07-02T10:05:30;99685.09;;;34.47;33.16
81393;BME280;70850;45.808;15.808;2023-07-02T10:07:56;99678.03;;;34.56;31.47
81393;BME280;70850;45.808;15.808;2023-07-02T10:10:30;99682.84;;;33.63;32.41
81393;BME280;70850;45.808;15.808;2023-07-02T10:12:56;99666.50;;;34.16;32.52
81393;BME280;70850;45.808;15.808;2023-07-02T10:15:29;99669.94;;;33.88;31.07
81393;BME280;70850;45.808;15.808;2023-07-02T10:17:57;99673.22;;;34.36;32.66
81393;BME280;70850;45.808;15.808;2023-07-02T10:20:34;99676.84;;;34.68;31.44
81393;BME280;70850;45.808;15.808;2023-07-02T10:23:00;99677.97;;;34.32;32.48
81393;BME280;70850;45.808;15.808;2023-07-02T10:25:32;99676.44;;;34.80;30.61
81393;BME280;70850;45.808;15.808;2023-07-02T10:27:59;99671.31;;;34.82;28.48
81393;BME280;70850;45.808;15.808;2023-07-02T10:30:32;99678.00;;;34.42;28.60
81393;BME280;70850;45.808;15.808;2023-07-02T10:33:17;99684.69;;;34.45;30.38
81393;BME280;70850;45.808;15.808;2023-07-02T10:35:44;99670.44;;;34.15;30.91
81393;BME280;70850;45.808;15.808;2023-07-02T10:38:17;99678.00;;;34.35;28.99
81393;BME280;70850;45.808;15.808;2023-07-02T10:40:43;99672.88;;;34.48;28.98
81393;BME280;70850;45.808;15.808;2023-07-02T10:43:08;99674.88;;;34.76;26.41
81393;BME280;70850;45.808;15.808;2023-07-02T10:45:35;99677.25;;;34.77;28.50
81393;BME280;70850;45.808;15.808;2023-07-02T10:48:08;99674.84;;;35.04;26.40
81393;BME280;70850;45.808;15.808;2023-07-02T10:50:34;99678.03;;;34.56;29.54
81393;BME280;70850;45.808;15.808;2023-07-02T10:53:00;99670.91;;;34.87;29.98
81393;BME280;70850;45.808;15.808;2023-07-02T10:55:26;99668.16;;;34.98;28.94
81393;BME280;70850;45.808;15.808;2023-07-02T10:58:04;99667.28;;;35.40;29.66
81393;BME280;70850;45.808;15.808;2023-07-02T11:00:30;99657.47;;;35.17;30.88
81393;BME280;70850;45.808;15.808;2023-07-02T11:02:56;99659.47;;;34.89;31.49
81393;BME280;70850;45.808;15.808;2023-07-02T11:05:21;99664.19;;;35.13;28.70
81393;BME280;70850;45.808;15.808;2023-07-02T11:07:46;99651.53;;;35.12;26.64
81393;BME280;70850;45.808;15.808;2023-07-02T11:10:18;99649.59;;;34.74;29.55
81393;BME280;70850;45.808;15.808;2023-07-02T11:12:44;99657.91;;;34.84;29.88
81393;BME280;70850;45.808;15.808;2023-07-02T11:15:12;99649.59;;;34.84;31.28
81393;BME280;70850;45.808;15.808;2023-07-02T11:17:38;99657.47;;;35.00;28.36
81393;BME280;70850;45.808;15.808;2023-07-02T11:20:12;99653.16;;;34.56;26.97
81393;BME280;70850;45.808;15.808;2023-07-02T11:22:39;99657.41;;;34.08;29.46
81393;BME280;70850;45.808;15.808;2023-07-02T11:25:18;99666.97;;;34.67;26.44
81393;BME280;70850;45.808;15.808;2023-07-02T11:27:45;99654.69;;;34.50;26.80
81393;BME280;70850;45.808;15.808;2023-07-02T11:30:11;99655.50;;;34.79;28.89
81393;BME280;70850;45.808;15.808;2023-07-02T11:32:51;99665.38;;;34.80;30.34
81393;BME280;70850;45.808;15.808;2023-07-02T11:35:17;99670.91;;;35.19;33.58
81393;BME280;70850;45.808;15.808;2023-07-02T11:37:43;99665.69;;;35.42;31.27
81393;BME280;70850;45.808;15.808;2023-07-02T11:40:10;99668.44;;;35.53;29.95
81393;BME280;70850;45.808;15.808;2023-07-02T11:42:36;99658.16;;;35.60;30.16
81393;BME280;70850;45.808;15.808;2023-07-02T11:45:01;99666.38;;;35.78;30.45
81393;BME280;70850;45.808;15.808;2023-07-02T11:47:26;99666.41;;;35.74;30.18
81393;BME280;70850;45.808;15.808;2023-07-02T11:49:53;99668.06;;;35.47;29.40
81393;BME280;70850;45.808;15.808;2023-07-02T11:52:20;99662.66;;;34.62;29.60
81393;BME280;70850;45.808;15.808;2023-07-02T11:54:45;99653.34;;;33.84;28.96
81393;BME280;70850;45.808;15.808;2023-07-02T11:57:10;99666.16;;;34.45;30.66
81393;BME280;70850;45.808;15.808;2023-07-02T11:59:36;99658.91;;;33.91;28.11
81393;BME280;70850;45.808;15.808;2023-07-02T12:02:02;99662.78;;;33.73;30.10
81393;BME280;70850;45.808;15.808;2023-07-02T12:04:28;99662.16;;;33.35;27.95
81393;BME280;70850;45.808;15.808;2023-07-02T12:06:53;99662.28;;;33.53;29.63
81393;BME280;70850;45.808;15.808;2023-07-02T12:09:19;99652.28;;;33.24;31.17
81393;BME280;70850;45.808;15.808;2023-07-02T12:11:44;99646.25;;;33.83;30.27
81393;BME280;70850;45.808;15.808;2023-07-02T12:14:11;99651.00;;;33.83;33.39
81393;BME280;70850;45.808;15.808;2023-07-02T12:16:37;99646.00;;;34.41;32.22
81393;BME280;70850;45.808;15.808;2023-07-02T12:19:02;99643.25;;;34.38;32.48
81393;BME280;70850;45.808;15.808;2023-07-02T12:21:27;99654.34;;;34.62;32.36
81393;BME280;70850;45.808;15.808;2023-07-02T12:23:53;99649.19;;;34.82;32.18
81393;BME280;70850;45.808;15.808;2023-07-02T12:26:18;99648.78;;;35.05;32.76
81393;BME280;70850;45.808;15.808;2023-07-02T12:28:44;99642.47;;;34.65;30.57
81393;BME280;70850;45.808;15.808;2023-07-02T12:31:09;99649.19;;;35.03;29.59
81393;BME280;70850;45.808;15.808;2023-07-02T12:33:35;99640.88;;;35.00;29.79
81393;BME280;70850;45.808;15.808;2023-07-02T12:36:01;99644.03;;;35.19;29.29
81393;BME280;70850;45.808;15.808;2023-07-02T12:38:28;99644.44;;;35.07;30.38
81393;BME280;70850;45.808;15.808;2023-07-02T12:40:53;99647.59;;;35.09;28.50
81393;BME280;70850;45.808;15.808;2023-07-02T12:43:19;99635.75;;;34.56;28.47
81393;BME280;70850;45.808;15.808;2023-07-02T12:45:45;99632.22;;;34.59;30.21
81393;BME280;70850;45.808;15.808;2023-07-02T12:48:10;99633.78;;;34.63;29.80
81393;BME280;70850;45.808;15.808;2023-07-02T12:50:38;99630.63;;;34.58;31.33
81393;BME280;70850;45.808;15.808;2023-07-02T12:53:04;99627.03;;;34.47;31.53